sensor_id;sensor_type;location;lat;lon;timestamp;P1;durP1;ratioP1;P2;durP2;ratioP2
71236;SDS011;58984;51.960;5.582;2023-05-07T00:01:42;10.40;;;5.85;;
71236;SDS011;58984;51.960;5.582;2023-05-07T00:04:08;7.15;;;5.07;;
71236;SDS011;58984;51.960;5.582;2023-05-07T00:06:33;7.85;;;5.03;;
71236;SDS011;58984;51.960;5.582;2023-05-07T00:08:59;6.47;;;5.03;;
71236;SDS011;58984;51.960;5.582;2023-05-07T00:11:26;5.28;;;4.75;;
71236;SDS011;58984;51.960;5.582;2023-05-07T00:13:52;6.43;;;4.93;;
71236;SDS011;58984;51.960;5.582;2023-05-07T00:16:18;6.82;;;4.53;;
71236;SDS011;58984;51.960;5.582;2023-05-07T00:18:44;6.78;;;4.53;;
71236;SDS011;58984;51.960;5.582;2023-05-07T00:21:10;6.72;;;4.70;;
71236;SDS011;58984;51.960;5.582;2023-05-07T00:23:35;6.90;;;4.55;;
71236;SDS011;58984;51.960;5.582;2023-05-07T00:26:01;5.47;;;4.57;;
71236;SDS011;58984;51.960;5.582;2023-05-07T00:28:27;5.20;;;4.15;;
71236;SDS011;58984;51.960;5.582;2023-05-07T00:30:53;5.30;;;4.75;;
71236;SDS011;58984;51.960;5.582;2023-05-07T00:33:18;6.70;;;4.78;;
71236;SDS011;58984;51.960;5.582;2023-05-07T00:35:45;5.57;;;4.45;;
71236;SDS011;58984;51.960;5.582;2023-05-07T00:38:11;5.43;;;4.32;;
71236;SDS011;58984;51.960;5.582;2023-05-07T00:40:37;5.47;;;4.35;;
71236;SDS011;58984;51.960;5.582;2023-05-07T00:43:02;7.88;;;5.07;;
71236;SDS011;58984;51.960;5.582;2023-05-07T00:45:28;6.15;;;4.60;;
71236;SDS011;58984;51.960;5.582;2023-05-07T00:47:55;8.80;;;5.18;;
71236;SDS011;58984;51.960;5.582;2023-05-07T00:50:24;7.07;;;4.78;;
71236;SDS011;58984;51.960;5.582;2023-05-07T00:52:50;10.25;;;4.95;;
71236;SDS011;58984;51.960;5.582;2023-05-07T00:55:16;6.32;;;5.22;;
71236;SDS011;58984;51.960;5.582;2023-05-07T00:57:42;6.72;;;4.63;;
71236;SDS011;58984;51.960;5.582;2023-05-07T01:00:08;7.30;;;5.05;;
71236;SDS011;58984;51.960;5.582;2023-05-07T01:02:35;7.55;;;5.03;;
71236;SDS011;58984;51.960;5.582;2023-05-07T01:05:01;6.03;;;4.80;;
71236;SDS011;58984;51.960;5.582;2023-05-07T01:07:29;6.30;;;5.03;;
71236;SDS011;58984;51.960;5.582;2023-05-07T01:09:56;5.50;;;4.47;;
71236;SDS011;58984;51.960;5.582;2023-05-07T01:12:22;8.48;;;5.57;;
71236;SDS011;58984;51.960;5.582;2023-05-07T01:14:48;6.70;;;4.85;;
71236;SDS011;58984;51.960;5.582;2023-05-07T01:17:15;8.00;;;5.35;;
71236;SDS011;58984;51.960;5.582;2023-05-07T01:19:41;9.38;;;5.35;;
71236;SDS011;58984;51.960;5.582;2023-05-07T01:22:07;9.40;;;5.85;;
71236;SDS011;58984;51.960;5.582;2023-05-07T01:24:36;7.82;;;5.65;;
71236;SDS011;58984;51.960;5.582;2023-05-07T01:27:02;6.80;;;5.25;;
71236;SDS011;58984;51.960;5.582;2023-05-07T01:29:28;7.32;;;6.10;;
71236;SDS011;58984;51.960;5.582;2023-05-07T01:31:54;7.07;;;5.38;;
71236;SDS011;58984;51.960;5.582;2023-05-07T01:34:23;9.02;;;5.75;;
71236;SDS011;58984;51.960;5.582;2023-05-07T01:36:51;8.43;;;6.00;;
71236;SDS011;58984;51.960;5.582;2023-05-07T01:39:18;7.20;;;5.80;;
71236;SDS011;58984;51.960;5.582;2023-05-07T01:41:44;10.65;;;5.90;;
71236;SDS011;58984;51.960;5.582;2023-05-07T01:44:10;9.93;;;5.80;;
71236;SDS011;58984;51.960;5.582;2023-05-07T01:46:38;10.90;;;6.20;;
71236;SDS011;58984;51.960;5.582;2023-05-07T01:49:03;10.07;;;6.30;;
71236;SDS011;58984;51.960;5.582;2023-05-07T01:51:29;8.07;;;6.10;;
71236;SDS011;58984;51.960;5.582;2023-05-07T01:53:56;7.82;;;6.05;;
71236;SDS011;58984;51.960;5.582;2023-05-07T01:56:23;9.65;;;6.40;;
71236;SDS011;58984;51.960;5.582;2023-05-07T01:58:49;8.25;;;6.10;;
71236;SDS011;58984;51.960;5.582;2023-05-07T02:01:16;10.65;;;6.60;;
71236;SDS011;58984;51.960;5.582;2023-05-07T02:03:41;10.38;;;6.47;;
71236;SDS011;58984;51.960;5.582;2023-05-07T02:06:07;8.80;;;6.53;;
71236;SDS011;58984;51.960;5.582;2023-05-07T02:08:32;11.52;;;7.60;;
71236;SDS011;58984;51.960;5.582;2023-05-07T02:10:58;10.32;;;7.15;;
71236;SDS011;58984;51.960;5.582;2023-05-07T02:13:23;9.35;;;6.80;;
71236;SDS011;58984;51.960;5.582;2023-05-07T02:15:50;11.82;;;7.60;;
71236;SDS011;58984;51.960;5.582;2023-05-07T02:18:16;9.80;;;6.78;;
71236;SDS011;58984;51.960;5.582;2023-05-07T02:20:42;7.55;;;6.60;;
71236;SDS011;58984;51.960;5.582;2023-05-07T02:23:08;10.10;;;6.93;;
71236;SDS011;58984;51.960;5.582;2023-05-07T02:25:33;10.13;;;7.22;;
71236;SDS011;58984;51.960;5.582;2023-05-07T02:27:59;8.70;;;6.88;;
71236;SDS011;58984;51.960;5.582;2023-05-07T02:30:25;13.63;;;7.55;;
71236;SDS011;58984;51.960;5.582;2023-05-07T02:32:50;9.15;;;7.38;;
71236;SDS011;58984;51.960;5.582;2023-05-07T02:35:16;9.63;;;6.93;;
71236;SDS011;58984;51.960;5.582;2023-05-07T02:37:42;10.85;;;7.00;;
71236;SDS011;58984;51.960;5.582;2023-05-07T02:40:08;10.82;;;6.70;;
71236;SDS011;58984;51.960;5.582;2023-05-07T02:42:34;9.73;;;7.05;;
71236;SDS011;58984;51.960;5.582;2023-05-07T02:44:59;9.80;;;7.20;;
71236;SDS011;58984;51.960;5.582;2023-05-07T02:47:25;10.38;;;6.68;;
71236;SDS011;58984;51.960;5.582;2023-05-07T02:49:56;9.07;;;7.13;;
71236;SDS011;58984;51.960;5.582;2023-05-07T02:52:22;9.20;;;7.22;;
71236;SDS011;58984;51.960;5.582;2023-05-07T02:54:47;8.70;;;6.97;;
71236;SDS011;58984;51.960;5.582;2023-05-07T02:57:13;11.32;;;7.85;;
71236;SDS011;58984;51.960;5.582;2023-05-07T02:59:39;13.07;;;7.18;;
71236;SDS011;58984;51.960;5.582;2023-05-07T03:02:05;9.80;;;7.60;;
71236;SDS011;58984;51.960;5.582;2023-05-07T03:04:30;9.90;;;7.18;;
71236;SDS011;58984;51.960;5.582;2023-05-07T03:06:56;9.65;;;7.75;;
71236;SDS011;58984;51.960;5.582;2023-05-07T03:09:21;9.95;;;7.60;;
71236;SDS011;58984;51.960;5.582;2023-05-07T03:11:47;10.30;;;7.63;;
71236;SDS011;58984;51.960;5.582;2023-05-07T03:14:13;9.48;;;7.30;;
71236;SDS011;58984;51.960;5.582;2023-05-07T03:16:38;12.00;;;8.45;;
71236;SDS011;58984;51.960;5.582;2023-05-07T03:19:04;8.80;;;7.57;;
71236;SDS011;58984;51.960;5.582;2023-05-07T03:21:30;10.90;;;7.20;;
71236;SDS011;58984;51.960;5.582;2023-05-07T03:23:58;11.50;;;7.50;;
71236;SDS011;58984;51.960;5.582;2023-05-07T03:26:23;13.27;;;8.15;;
71236;SDS011;58984;51.960;5.582;2023-05-07T03:28:49;10.55;;;8.18;;
71236;SDS011;58984;51.960;5.582;2023-05-07T03:31:14;11.45;;;8.55;;
71236;SDS011;58984;51.960;5.582;2023-05-07T03:33:53;11.70;;;7.43;;
71236;SDS011;58984;51.960;5.582;2023-05-07T03:36:20;8.63;;;6.85;;
71236;SDS011;58984;51.960;5.582;2023-05-07T03:38:47;12.93;;;8.15;;
71236;SDS011;58984;51.960;5.582;2023-05-07T03:41:13;10.18;;;7.43;;
71236;SDS011;58984;51.960;5.582;2023-05-07T03:43:39;9.57;;;7.38;;
71236;SDS011;58984;51.960;5.582;2023-05-07T03:46:04;8.43;;;7.32;;
71236;SDS011;58984;51.960;5.582;2023-05-07T03:48:30;11.18;;;8.02;;
71236;SDS011;58984;51.960;5.582;2023-05-07T03:50:57;11.05;;;7.45;;
71236;SDS011;58984;51.960;5.582;2023-05-07T03:53:23;12.40;;;8.50;;
71236;SDS011;58984;51.960;5.582;2023-05-07T03:55:48;9.93;;;8.15;;
71236;SDS011;58984;51.960;5.582;2023-05-07T03:58:14;11.50;;;8.15;;
71236;SDS011;58984;51.960;5.582;2023-05-07T04:00:40;11.45;;;8.48;;
71236;SDS011;58984;51.960;5.582;2023-05-07T04:03:06;12.18;;;8.35;;
71236;SDS011;58984;51.960;5.582;2023-05-07T04:05:32;13.63;;;8.55;;
71236;SDS011;58984;51.960;5.582;2023-05-07T04:07:57;9.45;;;7.90;;
71236;SDS011;58984;51.960;5.582;2023-05-07T04:10:23;10.65;;;7.70;;
71236;SDS011;58984;51.960;5.582;2023-05-07T04:12:49;11.13;;;7.95;;
71236;SDS011;58984;51.960;5.582;2023-05-07T04:15:15;10.63;;;7.75;;
71236;SDS011;58984;51.960;5.582;2023-05-07T04:17:40;10.43;;;7.78;;
71236;SDS011;58984;51.960;5.582;2023-05-07T04:20:08;11.48;;;8.75;;
71236;SDS011;58984;51.960;5.582;2023-05-07T04:22:35;11.07;;;7.53;;
71236;SDS011;58984;51.960;5.582;2023-05-07T04:25:01;10.75;;;8.13;;
71236;SDS011;58984;51.960;5.582;2023-05-07T04:27:27;13.05;;;8.05;;
71236;SDS011;58984;51.960;5.582;2023-05-07T04:29:53;11.57;;;9.05;;
71236;SDS011;58984;51.960;5.582;2023-05-07T04:32:20;13.63;;;8.60;;
71236;SDS011;58984;51.960;5.582;2023-05-07T04:34:46;11.20;;;8.45;;
71236;SDS011;58984;51.960;5.582;2023-05-07T04:37:12;11.90;;;7.95;;
71236;SDS011;58984;51.960;5.582;2023-05-07T04:39:37;9.15;;;7.28;;
71236;SDS011;58984;51.960;5.582;2023-05-07T04:42:03;9.95;;;7.90;;
71236;SDS011;58984;51.960;5.582;2023-05-07T04:44:28;9.55;;;7.82;;
71236;SDS011;58984;51.960;5.582;2023-05-07T04:46:56;10.77;;;9.38;;
71236;SDS011;58984;51.960;5.582;2023-05-07T04:49:21;12.23;;;8.65;;
71236;SDS011;58984;51.960;5.582;2023-05-07T04:51:47;13.35;;;8.43;;
71236;SDS011;58984;51.960;5.582;2023-05-07T04:54:13;10.98;;;8.05;;
71236;SDS011;58984;51.960;5.582;2023-05-07T04:56:38;10.75;;;8.25;;
71236;SDS011;58984;51.960;5.582;2023-05-07T04:59:04;13.88;;;9.15;;
71236;SDS011;58984;51.960;5.582;2023-05-07T05:01:30;12.05;;;8.63;;
71236;SDS011;58984;51.960;5.582;2023-05-07T05:03:56;14.60;;;8.90;;
71236;SDS011;58984;51.960;5.582;2023-05-07T05:06:22;11.10;;;8.63;;
71236;SDS011;58984;51.960;5.582;2023-05-07T05:08:47;10.20;;;8.52;;
71236;SDS011;58984;51.960;5.582;2023-05-07T05:11:13;13.40;;;9.13;;
71236;SDS011;58984;51.960;5.582;2023-05-07T05:13:38;13.05;;;8.25;;
71236;SDS011;58984;51.960;5.582;2023-05-07T05:16:04;11.77;;;8.23;;
71236;SDS011;58984;51.960;5.582;2023-05-07T05:18:30;8.95;;;8.05;;
71236;SDS011;58984;51.960;5.582;2023-05-07T05:20:56;14.05;;;9.23;;
71236;SDS011;58984;51.960;5.582;2023-05-07T05:23:22;11.23;;;8.75;;
71236;SDS011;58984;51.960;5.582;2023-05-07T05:25:47;11.00;;;9.05;;
71236;SDS011;58984;51.960;5.582;2023-05-07T05:28:13;10.30;;;8.27;;
71236;SDS011;58984;51.960;5.582;2023-05-07T05:30:39;11.77;;;8.80;;
71236;SDS011;58984;51.960;5.582;2023-05-07T05:33:04;15.43;;;8.90;;
71236;SDS011;58984;51.960;5.582;2023-05-07T05:35:30;11.02;;;8.10;;
71236;SDS011;58984;51.960;5.582;2023-05-07T05:37:56;11.00;;;7.88;;
71236;SDS011;58984;51.960;5.582;2023-05-07T05:40:22;13.45;;;8.10;;
71236;SDS011;58984;51.960;5.582;2023-05-07T05:42:47;10.27;;;8.43;;
71236;SDS011;58984;51.960;5.582;2023-05-07T05:45:13;10.38;;;7.63;;
71236;SDS011;58984;51.960;5.582;2023-05-07T05:47:39;14.77;;;9.68;;
71236;SDS011;58984;51.960;5.582;2023-05-07T05:50:06;13.82;;;9.35;;
71236;SDS011;58984;51.960;5.582;2023-05-07T05:52:32;14.48;;;9.57;;
71236;SDS011;58984;51.960;5.582;2023-05-07T05:54:58;15.00;;;9.38;;
71236;SDS011;58984;51.960;5.582;2023-05-07T05:57:23;11.95;;;7.47;;
71236;SDS011;58984;51.960;5.582;2023-05-07T05:59:49;14.82;;;8.38;;
71236;SDS011;58984;51.960;5.582;2023-05-07T06:02:15;11.57;;;8.23;;
71236;SDS011;58984;51.960;5.582;2023-05-07T06:04:40;11.48;;;8.27;;
71236;SDS011;58984;51.960;5.582;2023-05-07T06:07:07;15.00;;;9.65;;
71236;SDS011;58984;51.960;5.582;2023-05-07T06:09:32;14.73;;;9.05;;
71236;SDS011;58984;51.960;5.582;2023-05-07T06:11:58;11.57;;;8.88;;
71236;SDS011;58984;51.960;5.582;2023-05-07T06:14:24;13.23;;;9.38;;
71236;SDS011;58984;51.960;5.582;2023-05-07T06:16:49;16.25;;;9.25;;
71236;SDS011;58984;51.960;5.582;2023-05-07T06:19:15;11.85;;;9.65;;
71236;SDS011;58984;51.960;5.582;2023-05-07T06:21:43;11.40;;;8.88;;
71236;SDS011;58984;51.960;5.582;2023-05-07T06:24:08;13.38;;;9.15;;
71236;SDS011;58984;51.960;5.582;2023-05-07T06:26:34;11.18;;;8.55;;
71236;SDS011;58984;51.960;5.582;2023-05-07T06:28:59;13.43;;;8.77;;
71236;SDS011;58984;51.960;5.582;2023-05-07T06:31:28;13.57;;;8.70;;
71236;SDS011;58984;51.960;5.582;2023-05-07T06:33:55;14.13;;;8.82;;
71236;SDS011;58984;51.960;5.582;2023-05-07T06:36:21;14.07;;;9.50;;
71236;SDS011;58984;51.960;5.582;2023-05-07T06:38:47;10.23;;;8.30;;
71236;SDS011;58984;51.960;5.582;2023-05-07T06:41:12;11.48;;;8.23;;
71236;SDS011;58984;51.960;5.582;2023-05-07T06:43:38;11.63;;;9.00;;
71236;SDS011;58984;51.960;5.582;2023-05-07T06:46:03;12.50;;;9.48;;
71236;SDS011;58984;51.960;5.582;2023-05-07T06:48:29;11.57;;;9.23;;
71236;SDS011;58984;51.960;5.582;2023-05-07T06:50:54;14.13;;;9.93;;
71236;SDS011;58984;51.960;5.582;2023-05-07T06:53:22;12.30;;;7.97;;
71236;SDS011;58984;51.960;5.582;2023-05-07T06:55:48;13.85;;;8.60;;
71236;SDS011;58984;51.960;5.582;2023-05-07T06:58:14;13.25;;;8.93;;
71236;SDS011;58984;51.960;5.582;2023-05-07T07:00:39;11.95;;;7.15;;
71236;SDS011;58984;51.960;5.582;2023-05-07T07:03:05;15.50;;;9.45;;
71236;SDS011;58984;51.960;5.582;2023-05-07T07:05:31;12.68;;;8.93;;
71236;SDS011;58984;51.960;5.582;2023-05-07T07:07:57;12.80;;;9.55;;
71236;SDS011;58984;51.960;5.582;2023-05-07T07:10:23;11.77;;;9.23;;
71236;SDS011;58984;51.960;5.582;2023-05-07T07:12:48;13.45;;;9.55;;
71236;SDS011;58984;51.960;5.582;2023-05-07T07:15:14;11.68;;;8.60;;
71236;SDS011;58984;51.960;5.582;2023-05-07T07:17:41;11.45;;;8.48;;
71236;SDS011;58984;51.960;5.582;2023-05-07T07:20:06;13.38;;;8.95;;
71236;SDS011;58984;51.960;5.582;2023-05-07T07:22:33;13.82;;;9.32;;
71236;SDS011;58984;51.960;5.582;2023-05-07T07:24:58;12.43;;;9.13;;
71236;SDS011;58984;51.960;5.582;2023-05-07T07:27:24;11.52;;;8.82;;
71236;SDS011;58984;51.960;5.582;2023-05-07T07:29:50;11.10;;;8.40;;
71236;SDS011;58984;51.960;5.582;2023-05-07T07:32:15;13.13;;;8.88;;
71236;SDS011;58984;51.960;5.582;2023-05-07T07:34:41;9.98;;;7.53;;
71236;SDS011;58984;51.960;5.582;2023-05-07T07:37:06;16.08;;;10.00;;
71236;SDS011;58984;51.960;5.582;2023-05-07T07:39:32;10.80;;;7.05;;
71236;SDS011;58984;51.960;5.582;2023-05-07T07:41:58;10.43;;;7.72;;
71236;SDS011;58984;51.960;5.582;2023-05-07T07:44:24;12.88;;;9.15;;
71236;SDS011;58984;51.960;5.582;2023-05-07T07:46:50;10.15;;;7.18;;
71236;SDS011;58984;51.960;5.582;2023-05-07T07:49:16;9.40;;;6.50;;
71236;SDS011;58984;51.960;5.582;2023-05-07T07:51:42;12.80;;;9.43;;
71236;SDS011;58984;51.960;5.582;2023-05-07T07:54:08;11.45;;;7.00;;
71236;SDS011;58984;51.960;5.582;2023-05-07T07:56:33;10.18;;;7.75;;
71236;SDS011;58984;51.960;5.582;2023-05-07T07:58:59;7.85;;;5.93;;
71236;SDS011;58984;51.960;5.582;2023-05-07T08:01:25;12.05;;;8.90;;
71236;SDS011;58984;51.960;5.582;2023-05-07T08:03:51;8.93;;;6.55;;
71236;SDS011;58984;51.960;5.582;2023-05-07T08:06:17;9.13;;;6.88;;
71236;SDS011;58984;51.960;5.582;2023-05-07T08:08:43;11.05;;;7.20;;
71236;SDS011;58984;51.960;5.582;2023-05-07T08:11:08;10.63;;;7.57;;
71236;SDS011;58984;51.960;5.582;2023-05-07T08:13:34;9.60;;;7.78;;
71236;SDS011;58984;51.960;5.582;2023-05-07T08:16:00;11.27;;;6.68;;
71236;SDS011;58984;51.960;5.582;2023-05-07T08:18:26;9.95;;;7.03;;
71236;SDS011;58984;51.960;5.582;2023-05-07T08:20:53;8.23;;;6.30;;
71236;SDS011;58984;51.960;5.582;2023-05-07T08:23:19;8.10;;;6.32;;
71236;SDS011;58984;51.960;5.582;2023-05-07T08:25:45;10.15;;;6.97;;
71236;SDS011;58984;51.960;5.582;2023-05-07T08:28:11;8.07;;;6.03;;
71236;SDS011;58984;51.960;5.582;2023-05-07T08:30:36;8.38;;;6.07;;
71236;SDS011;58984;51.960;5.582;2023-05-07T08:33:02;11.98;;;8.75;;
71236;SDS011;58984;51.960;5.582;2023-05-07T08:35:28;8.23;;;6.10;;
71236;SDS011;58984;51.960;5.582;2023-05-07T08:37:53;12.70;;;8.15;;
71236;SDS011;58984;51.960;5.582;2023-05-07T08:40:19;11.75;;;7.72;;
71236;SDS011;58984;51.960;5.582;2023-05-07T08:42:49;9.95;;;6.80;;
71236;SDS011;58984;51.960;5.582;2023-05-07T08:45:17;9.95;;;7.35;;
71236;SDS011;58984;51.960;5.582;2023-05-07T08:47:46;11.00;;;7.22;;
71236;SDS011;58984;51.960;5.582;2023-05-07T08:50:14;6.70;;;6.00;;
71236;SDS011;58984;51.960;5.582;2023-05-07T08:52:40;8.82;;;5.70;;
71236;SDS011;58984;51.960;5.582;2023-05-07T08:55:06;7.78;;;6.00;;
71236;SDS011;58984;51.960;5.582;2023-05-07T08:57:33;7.47;;;6.10;;
71236;SDS011;58984;51.960;5.582;2023-05-07T08:59:58;10.13;;;7.03;;
71236;SDS011;58984;51.960;5.582;2023-05-07T09:02:24;8.05;;;6.68;;
71236;SDS011;58984;51.960;5.582;2023-05-07T09:04:49;7.55;;;6.38;;
71236;SDS011;58984;51.960;5.582;2023-05-07T09:07:15;10.75;;;7.20;;
71236;SDS011;58984;51.960;5.582;2023-05-07T09:09:41;10.27;;;7.22;;
71236;SDS011;58984;51.960;5.582;2023-05-07T09:12:09;7.82;;;6.25;;
71236;SDS011;58984;51.960;5.582;2023-05-07T09:14:35;10.25;;;7.03;;
71236;SDS011;58984;51.960;5.582;2023-05-07T09:17:00;11.05;;;7.22;;
71236;SDS011;58984;51.960;5.582;2023-05-07T09:19:26;9.10;;;7.13;;
71236;SDS011;58984;51.960;5.582;2023-05-07T09:21:59;10.57;;;8.30;;
71236;SDS011;58984;51.960;5.582;2023-05-07T09:24:28;11.82;;;7.40;;
71236;SDS011;58984;51.960;5.582;2023-05-07T09:26:58;8.43;;;6.10;;
71236;SDS011;58984;51.960;5.582;2023-05-07T09:29:25;9.52;;;6.60;;
71236;SDS011;58984;51.960;5.582;2023-05-07T09:31:51;7.38;;;6.18;;
71236;SDS011;58984;51.960;5.582;2023-05-07T09:34:16;9.90;;;6.25;;
71236;SDS011;58984;51.960;5.582;2023-05-07T09:36:42;8.40;;;6.72;;
71236;SDS011;58984;51.960;5.582;2023-05-07T09:39:07;11.90;;;6.57;;
71236;SDS011;58984;51.960;5.582;2023-05-07T09:41:33;10.13;;;6.80;;
71236;SDS011;58984;51.960;5.582;2023-05-07T09:44:08;8.10;;;5.95;;
71236;SDS011;58984;51.960;5.582;2023-05-07T09:46:34;11.27;;;6.53;;
71236;SDS011;58984;51.960;5.582;2023-05-07T09:49:03;10.88;;;7.45;;
71236;SDS011;58984;51.960;5.582;2023-05-07T09:51:36;9.20;;;6.55;;
71236;SDS011;58984;51.960;5.582;2023-05-07T09:54:06;8.98;;;6.38;;
71236;SDS011;58984;51.960;5.582;2023-05-07T09:56:32;8.88;;;5.68;;
71236;SDS011;58984;51.960;5.582;2023-05-07T09:58:59;7.68;;;6.03;;
71236;SDS011;58984;51.960;5.582;2023-05-07T10:01:26;6.57;;;5.70;;
71236;SDS011;58984;51.960;5.582;2023-05-07T10:03:52;10.13;;;5.47;;
71236;SDS011;58984;51.960;5.582;2023-05-07T10:06:19;7.15;;;5.78;;
71236;SDS011;58984;51.960;5.582;2023-05-07T10:08:45;8.52;;;6.00;;
71236;SDS011;58984;51.960;5.582;2023-05-07T10:11:11;8.38;;;5.93;;
71236;SDS011;58984;51.960;5.582;2023-05-07T10:13:39;9.65;;;6.70;;
71236;SDS011;58984;51.960;5.582;2023-05-07T10:16:06;15.55;;;7.65;;
71236;SDS011;58984;51.960;5.582;2023-05-07T10:18:32;9.55;;;6.75;;
71236;SDS011;58984;51.960;5.582;2023-05-07T10:21:02;9.98;;;6.45;;
71236;SDS011;58984;51.960;5.582;2023-05-07T10:23:33;8.60;;;6.15;;
71236;SDS011;58984;51.960;5.582;2023-05-07T10:25:59;6.88;;;5.78;;
71236;SDS011;58984;51.960;5.582;2023-05-07T10:28:29;10.02;;;7.40;;
71236;SDS011;58984;51.960;5.582;2023-05-07T10:33:51;7.78;;;5.80;;
71236;SDS011;58984;51.960;5.582;2023-05-07T10:36:19;8.07;;;6.13;;
71236;SDS011;58984;51.960;5.582;2023-05-07T10:38:46;10.55;;;6.97;;
71236;SDS011;58984;51.960;5.582;2023-05-07T10:41:12;7.80;;;6.05;;
71236;SDS011;58984;51.960;5.582;2023-05-07T10:43:38;12.23;;;7.47;;
71236;SDS011;58984;51.960;5.582;2023-05-07T10:46:09;8.38;;;6.28;;
71236;SDS011;58984;51.960;5.582;2023-05-07T10:51:26;11.05;;;6.47;;
71236;SDS011;58984;51.960;5.582;2023-05-07T10:56:37;8.88;;;6.15;;
71236;SDS011;58984;51.960;5.582;2023-05-07T11:01:53;9.70;;;6.97;;
71236;SDS011;58984;51.960;5.582;2023-05-07T11:04:20;8.82;;;6.90;;
71236;SDS011;58984;51.960;5.582;2023-05-07T11:15:03;9.07;;;6.20;;
71236;SDS011;58984;51.960;5.582;2023-05-07T11:17:30;9.82;;;6.65;;
71236;SDS011;58984;51.960;5.582;2023-05-07T11:19:57;11.15;;;7.15;;
71236;SDS011;58984;51.960;5.582;2023-05-07T11:25:04;9.95;;;6.82;;
71236;SDS011;58984;51.960;5.582;2023-05-07T11:27:31;10.60;;;7.13;;
71236;SDS011;58984;51.960;5.582;2023-05-07T11:29:57;10.63;;;7.55;;
71236;SDS011;58984;51.960;5.582;2023-05-07T11:32:26;9.88;;;7.63;;
71236;SDS011;58984;51.960;5.582;2023-05-07T11:35:00;9.48;;;6.68;;
71236;SDS011;58984;51.960;5.582;2023-05-07T11:37:26;10.13;;;7.00;;
71236;SDS011;58984;51.960;5.582;2023-05-07T11:40:04;12.38;;;7.65;;
71236;SDS011;58984;51.960;5.582;2023-05-07T11:42:40;11.35;;;7.95;;
71236;SDS011;58984;51.960;5.582;2023-05-07T11:45:08;11.40;;;7.20;;
71236;SDS011;58984;51.960;5.582;2023-05-07T11:47:34;10.10;;;7.63;;
71236;SDS011;58984;51.960;5.582;2023-05-07T11:50:06;10.18;;;7.13;;
71236;SDS011;58984;51.960;5.582;2023-05-07T11:52:33;10.27;;;6.93;;
71236;SDS011;58984;51.960;5.582;2023-05-07T11:54:59;9.63;;;6.70;;
71236;SDS011;58984;51.960;5.582;2023-05-07T11:57:26;10.25;;;7.45;;
71236;SDS011;58984;51.960;5.582;2023-05-07T11:59:52;9.50;;;7.45;;
71236;SDS011;58984;51.960;5.582;2023-05-07T12:02:19;9.25;;;7.38;;
71236;SDS011;58984;51.960;5.582;2023-05-07T12:04:44;14.02;;;7.47;;
71236;SDS011;58984;51.960;5.582;2023-05-07T12:07:13;8.93;;;7.00;;
71236;SDS011;58984;51.960;5.582;2023-05-07T12:09:40;9.80;;;7.25;;
71236;SDS011;58984;51.960;5.582;2023-05-07T12:12:09;7.65;;;6.32;;
71236;SDS011;58984;51.960;5.582;2023-05-07T12:14:42;10.65;;;6.20;;
71236;SDS011;58984;51.960;5.582;2023-05-07T12:17:08;8.98;;;6.38;;
71236;SDS011;58984;51.960;5.582;2023-05-07T12:19:35;8.13;;;5.82;;
71236;SDS011;58984;51.960;5.582;2023-05-07T12:22:02;8.95;;;6.00;;
71236;SDS011;58984;51.960;5.582;2023-05-07T12:24:29;8.07;;;5.60;;
71236;SDS011;58984;51.960;5.582;2023-05-07T12:27:06;7.00;;;5.63;;
71236;SDS011;58984;51.960;5.582;2023-05-07T12:29:32;10.85;;;6.10;;
71236;SDS011;58984;51.960;5.582;2023-05-07T12:31:57;7.93;;;5.65;;
71236;SDS011;58984;51.960;5.582;2023-05-07T12:34:23;8.50;;;5.72;;
71236;SDS011;58984;51.960;5.582;2023-05-07T12:36:49;6.63;;;5.35;;
71236;SDS011;58984;51.960;5.582;2023-05-07T12:39:14;6.90;;;5.15;;
71236;SDS011;58984;51.960;5.582;2023-05-07T12:41:56;6.85;;;5.00;;
71236;SDS011;58984;51.960;5.582;2023-05-07T12:44:30;7.28;;;5.63;;
71236;SDS011;58984;51.960;5.582;2023-05-07T12:46:57;7.75;;;5.55;;
71236;SDS011;58984;51.960;5.582;2023-05-07T12:49:23;7.10;;;5.28;;
71236;SDS011;58984;51.960;5.582;2023-05-07T12:51:50;5.68;;;5.07;;
71236;SDS011;58984;51.960;5.582;2023-05-07T12:54:31;10.00;;;5.22;;
71236;SDS011;58984;51.960;5.582;2023-05-07T12:57:04;6.70;;;5.72;;
71236;SDS011;58984;51.960;5.582;2023-05-07T12:59:38;7.15;;;5.50;;
71236;SDS011;58984;51.960;5.582;2023-05-07T13:02:05;6.80;;;5.40;;
71236;SDS011;58984;51.960;5.582;2023-05-07T13:04:31;7.38;;;5.68;;
71236;SDS011;58984;51.960;5.582;2023-05-07T13:06:58;8.35;;;6.18;;
71236;SDS011;58984;51.960;5.582;2023-05-07T13:09:27;10.18;;;6.78;;
71236;SDS011;58984;51.960;5.582;2023-05-07T13:11:56;9.45;;;7.18;;
71236;SDS011;58984;51.960;5.582;2023-05-07T13:14:24;10.45;;;6.80;;
71236;SDS011;58984;51.960;5.582;2023-05-07T13:16:50;8.02;;;6.43;;
71236;SDS011;58984;51.960;5.582;2023-05-07T13:19:16;8.88;;;6.55;;
71236;SDS011;58984;51.960;5.582;2023-05-07T13:21:42;9.50;;;6.80;;
71236;SDS011;58984;51.960;5.582;2023-05-07T13:24:08;9.07;;;6.75;;
71236;SDS011;58984;51.960;5.582;2023-05-07T13:26:33;8.88;;;6.47;;
71236;SDS011;58984;51.960;5.582;2023-05-07T13:28:59;9.00;;;7.57;;
71236;SDS011;58984;51.960;5.582;2023-05-07T13:31:25;10.98;;;7.47;;
71236;SDS011;58984;51.960;5.582;2023-05-07T13:33:51;8.38;;;6.93;;
71236;SDS011;58984;51.960;5.582;2023-05-07T13:36:17;8.75;;;7.28;;
71236;SDS011;58984;51.960;5.582;2023-05-07T13:38:43;7.20;;;6.50;;
71236;SDS011;58984;51.960;5.582;2023-05-07T13:41:08;9.23;;;6.57;;
71236;SDS011;58984;51.960;5.582;2023-05-07T13:43:34;10.93;;;7.32;;
71236;SDS011;58984;51.960;5.582;2023-05-07T13:46:00;9.77;;;6.38;;
71236;SDS011;58984;51.960;5.582;2023-05-07T13:48:26;8.65;;;6.47;;
71236;SDS011;58984;51.960;5.582;2023-05-07T13:50:53;9.85;;;6.03;;
71236;SDS011;58984;51.960;5.582;2023-05-07T13:53:19;6.55;;;5.82;;
71236;SDS011;58984;51.960;5.582;2023-05-07T13:55:44;6.88;;;6.18;;
71236;SDS011;58984;51.960;5.582;2023-05-07T13:58:10;8.38;;;5.85;;
71236;SDS011;58984;51.960;5.582;2023-05-07T14:00:36;8.45;;;5.68;;
71236;SDS011;58984;51.960;5.582;2023-05-07T14:03:01;6.70;;;5.63;;
71236;SDS011;58984;51.960;5.582;2023-05-07T14:05:27;5.85;;;5.22;;
71236;SDS011;58984;51.960;5.582;2023-05-07T14:07:54;7.10;;;5.25;;
71236;SDS011;58984;51.960;5.582;2023-05-07T14:10:21;8.63;;;6.00;;
71236;SDS011;58984;51.960;5.582;2023-05-07T14:12:47;7.03;;;6.20;;
71236;SDS011;58984;51.960;5.582;2023-05-07T14:15:13;8.88;;;5.75;;
71236;SDS011;58984;51.960;5.582;2023-05-07T14:17:39;7.80;;;5.82;;
71236;SDS011;58984;51.960;5.582;2023-05-07T14:20:05;7.85;;;5.57;;
71236;SDS011;58984;51.960;5.582;2023-05-07T14:22:31;8.52;;;6.10;;
71236;SDS011;58984;51.960;5.582;2023-05-07T14:24:57;7.22;;;6.25;;
71236;SDS011;58984;51.960;5.582;2023-05-07T14:27:23;6.78;;;6.07;;
71236;SDS011;58984;51.960;5.582;2023-05-07T14:29:48;18.60;;;11.98;;
71236;SDS011;58984;51.960;5.582;2023-05-07T14:32:16;22.92;;;13.25;;
71236;SDS011;58984;51.960;5.582;2023-05-07T14:34:43;20.38;;;12.38;;
71236;SDS011;58984;51.960;5.582;2023-05-07T14:37:08;15.40;;;11.30;;
71236;SDS011;58984;51.960;5.582;2023-05-07T14:39:34;14.90;;;10.60;;
71236;SDS011;58984;51.960;5.582;2023-05-07T14:42:00;13.10;;;9.98;;
71236;SDS011;58984;51.960;5.582;2023-05-07T14:44:25;13.07;;;8.90;;
71236;SDS011;58984;51.960;5.582;2023-05-07T14:46:51;11.63;;;8.88;;
71236;SDS011;58984;51.960;5.582;2023-05-07T14:49:16;11.13;;;8.05;;
71236;SDS011;58984;51.960;5.582;2023-05-07T14:51:43;11.60;;;8.77;;
71236;SDS011;58984;51.960;5.582;2023-05-07T14:54:10;10.02;;;7.80;;
71236;SDS011;58984;51.960;5.582;2023-05-07T14:56:36;13.32;;;8.48;;
71236;SDS011;58984;51.960;5.582;2023-05-07T14:59:02;10.10;;;7.72;;